sensor_id;sensor_type;location;lat;lon;timestamp;temperature;humidity
5960;DHT22;3006;50.956;7.002;2024-02-15T00:01:11;11.10;99.90
5960;DHT22;3006;50.956;7.002;2024-02-15T00:03:39;11.20;99.90
5960;DHT22;3006;50.956;7.002;2024-02-15T00:06:07;11.20;99.90
5960;DHT22;3006;50.956;7.002;2024-02-15T00:08:37;11.20;99.90
5960;DHT22;3006;50.956;7.002;2024-02-15T00:11:05;11.20;99.90
5960;DHT22;3006;50.956;7.002;2024-02-15T00:13:35;11.10;99.90
5960;DHT22;3006;50.956;7.002;2024-02-15T00:16:03;11.20;99.90
5960;DHT22;3006;50.956;7.002;2024-02-15T00:18:32;11.20;99.90
5960;DHT22;3006;50.956;7.002;2024-02-15T00:21:01;11.20;99.90
5960;DHT22;3006;50.956;7.002;2024-02-15T00:23:29;11.20;99.90
5960;DHT22;3006;50.956;7.002;2024-02-15T00:25:59;11.20;99.90
5960;DHT22;3006;50.956;7.002;2024-02-15T00:28:27;11.10;99.90
5960;DHT22;3006;50.956;7.002;2024-02-15T00:30:55;11.10;99.90
5960;DHT22;3006;50.956;7.002;2024-02-15T00:33:24;11.10;99.90
5960;DHT22;3006;50.956;7.002;2024-02-15T00:35:52;11.10;99.90
5960;DHT22;3006;50.956;7.002;2024-02-15T00:38:21;11.20;99.90
5960;DHT22;3006;50.956;7.002;2024-02-15T00:40:49;11.20;99.90
5960;DHT22;3006;50.956;7.002;2024-02-15T00:43:18;11.20;99.90
5960;DHT22;3006;50.956;7.002;2024-02-15T00:45:47;11.20;99.90
5960;DHT22;3006;50.956;7.002;2024-02-15T00:48:15;11.10;99.90
5960;DHT22;3006;50.956;7.002;2024-02-15T00:50:43;11.10;99.90
5960;DHT22;3006;50.956;7.002;2024-02-15T00:53:12;11.20;99.90
5960;DHT22;3006;50.956;7.002;2024-02-15T00:55:40;11.10;99.90
5960;DHT22;3006;50.956;7.002;2024-02-15T00:58:08;11.10;99.90
5960;DHT22;3006;50.956;7.002;2024-02-15T01:00:37;11.20;99.90
5960;DHT22;3006;50.956;7.002;2024-02-15T01:03:06;11.20;99.90
5960;DHT22;3006;50.956;7.002;2024-02-15T01:05:34;11.10;99.90
5960;DHT22;3006;50.956;7.002;2024-02-15T01:08:02;11.10;99.90
5960;DHT22;3006;50.956;7.002;2024-02-15T01:10:30;11.10;99.90
5960;DHT22;3006;50.956;7.002;2024-02-15T01:13:00;11.10;99.90
5960;DHT22;3006;50.956;7.002;2024-02-15T01:15:28;11.10;99.90
5960;DHT22;3006;50.956;7.002;2024-02-15T01:17:58;11.10;99.90
5960;DHT22;3006;50.956;7.002;2024-02-15T01:20:27;11.10;99.90
5960;DHT22;3006;50.956;7.002;2024-02-15T01:22:55;11.00;99.90
5960;DHT22;3006;50.956;7.002;2024-02-15T01:25:23;11.10;99.90
5960;DHT22;3006;50.956;7.002;2024-02-15T01:27:51;11.10;99.90
5960;DHT22;3006;50.956;7.002;2024-02-15T01:30:19;11.10;99.90
5960;DHT22;3006;50.956;7.002;2024-02-15T01:32:47;11.10;99.90
5960;DHT22;3006;50.956;7.002;2024-02-15T01:35:17;11.10;99.90
5960;DHT22;3006;50.956;7.002;2024-02-15T01:37:45;11.10;99.90
5960;DHT22;3006;50.956;7.002;2024-02-15T01:40:14;11.10;99.90
5960;DHT22;3006;50.956;7.002;2024-02-15T01:42:44;11.00;99.90
5960;DHT22;3006;50.956;7.002;2024-02-15T01:45:13;11.10;99.90
5960;DHT22;3006;50.956;7.002;2024-02-15T01:47:42;11.10;99.90
5960;DHT22;3006;50.956;7.002;2024-02-15T01:50:11;11.10;99.90
5960;DHT22;3006;50.956;7.002;2024-02-15T01:52:41;11.00;99.90
5960;DHT22;3006;50.956;7.002;2024-02-15T01:55:10;11.10;99.90
5960;DHT22;3006;50.956;7.002;2024-02-15T01:57:39;11.10;99.90
5960;DHT22;3006;50.956;7.002;2024-02-15T02:00:08;11.10;99.90
5960;DHT22;3006;50.956;7.002;2024-02-15T02:02:38;11.10;99.90
5960;DHT22;3006;50.956;7.002;2024-02-15T02:05:07;11.10;99.90
5960;DHT22;3006;50.956;7.002;2024-02-15T02:07:36;11.10;99.90
5960;DHT22;3006;50.956;7.002;2024-02-15T02:10:07;11.10;99.90
5960;DHT22;3006;50.956;7.002;2024-02-15T02:12:38;11.10;99.90
5960;DHT22;3006;50.956;7.002;2024-02-15T02:15:08;11.10;99.90
5960;DHT22;3006;50.956;7.002;2024-02-15T02:17:38;11.10;99.90
5960;DHT22;3006;50.956;7.002;2024-02-15T02:20:07;11.10;99.90
5960;DHT22;3006;50.956;7.002;2024-02-15T02:22:38;11.10;99.90
5960;DHT22;3006;50.956;7.002;2024-02-15T02:25:09;11.10;99.90
5960;DHT22;3006;50.956;7.002;2024-02-15T02:27:38;11.10;99.90
5960;DHT22;3006;50.956;7.002;2024-02-15T02:30:14;11.10;99.90
5960;DHT22;3006;50.956;7.002;2024-02-15T02:32:44;11.10;99.90
5960;DHT22;3006;50.956;7.002;2024-02-15T02:35:13;11.10;99.90
5960;DHT22;3006;50.956;7.002;2024-02-15T02:37:42;11.10;99.90
5960;DHT22;3006;50.956;7.002;2024-02-15T02:40:12;11.10;99.90
5960;DHT22;3006;50.956;7.002;2024-02-15T02:42:48;11.10;99.90
5960;DHT22;3006;50.956;7.002;2024-02-15T02:45:17;11.10;99.90
5960;DHT22;3006;50.956;7.002;2024-02-15T02:47:46;11.10;99.90
5960;DHT22;3006;50.956;7.002;2024-02-15T02:50:19;11.10;99.90
5960;DHT22;3006;50.956;7.002;2024-02-15T02:52:48;11.10;99.90
5960;DHT22;3006;50.956;7.002;2024-02-15T02:55:17;11.10;99.90
5960;DHT22;3006;50.956;7.002;2024-02-15T02:57:46;11.10;99.90
5960;DHT22;3006;50.956;7.002;2024-02-15T03:00:16;11.10;99.90
5960;DHT22;3006;50.956;7.002;2024-02-15T03:02:46;11.10;99.90
5960;DHT22;3006;50.956;7.002;2024-02-15T03:05:14;11.10;99.90
5960;DHT22;3006;50.956;7.002;2024-02-15T03:07:42;11.10;99.90
5960;DHT22;3006;50.956;7.002;2024-02-15T03:10:11;11.10;99.90
5960;DHT22;3006;50.956;7.002;2024-02-15T03:12:42;11.10;99.90
5960;DHT22;3006;50.956;7.002;2024-02-15T03:15:14;11.10;99.90
5960;DHT22;3006;50.956;7.002;2024-02-15T03:17:43;11.10;99.90
5960;DHT22;3006;50.956;7.002;2024-02-15T03:20:12;11.10;99.90
5960;DHT22;3006;50.956;7.002;2024-02-15T03:22:53;11.10;99.90
5960;DHT22;3006;50.956;7.002;2024-02-15T03:25:21;11.10;99.90
5960;DHT22;3006;50.956;7.002;2024-02-15T03:27:54;11.10;99.90
5960;DHT22;3006;50.956;7.002;2024-02-15T03:30:24;11.10;99.90
5960;DHT22;3006;50.956;7.002;2024-02-15T03:32:53;11.10;99.90
5960;DHT22;3006;50.956;7.002;2024-02-15T03:35:23;11.10;99.90
5960;DHT22;3006;50.956;7.002;2024-02-15T03:37:52;11.10;99.90
5960;DHT22;3006;50.956;7.002;2024-02-15T03:40:22;11.10;99.90
5960;DHT22;3006;50.956;7.002;2024-02-15T03:42:51;11.10;99.90
5960;DHT22;3006;50.956;7.002;2024-02-15T03:45:20;11.10;99.90
5960;DHT22;3006;50.956;7.002;2024-02-15T03:47:52;11.10;99.90
5960;DHT22;3006;50.956;7.002;2024-02-15T03:50:20;11.10;99.90
5960;DHT22;3006;50.956;7.002;2024-02-15T03:52:49;11.10;99.90
5960;DHT22;3006;50.956;7.002;2024-02-15T03:55:18;11.10;99.90
5960;DHT22;3006;50.956;7.002;2024-02-15T03:57:47;11.10;99.90
5960;DHT22;3006;50.956;7.002;2024-02-15T04:00:16;11.20;99.90
5960;DHT22;3006;50.956;7.002;2024-02-15T04:02:50;11.10;99.90
5960;DHT22;3006;50.956;7.002;2024-02-15T04:05:18;11.10;99.90
5960;DHT22;3006;50.956;7.002;2024-02-15T04:07:49;11.10;99.90
5960;DHT22;3006;50.956;7.002;2024-02-15T04:10:17;11.10;99.90
5960;DHT22;3006;50.956;7.002;2024-02-15T04:12:45;11.10;99.90
5960;DHT22;3006;50.956;7.002;2024-02-15T04:15:13;11.20;99.90
5960;DHT22;3006;50.956;7.002;2024-02-15T04:17:45;11.20;99.90
5960;DHT22;3006;50.956;7.002;2024-02-15T04:20:15;11.20;99.90
5960;DHT22;3006;50.956;7.002;2024-02-15T04:22:44;11.20;99.90
5960;DHT22;3006;50.956;7.002;2024-02-15T04:25:14;11.30;99.90
5960;DHT22;3006;50.956;7.002;2024-02-15T04:27:45;11.30;99.80
5960;DHT22;3006;50.956;7.002;2024-02-15T04:30:14;11.30;99.70
5960;DHT22;3006;50.956;7.002;2024-02-15T04:32:43;11.30;99.90
5960;DHT22;3006;50.956;7.002;2024-02-15T04:35:12;11.30;99.90
5960;DHT22;3006;50.956;7.002;2024-02-15T04:37:42;11.30;99.90
5960;DHT22;3006;50.956;7.002;2024-02-15T04:40:13;11.30;99.90
5960;DHT22;3006;50.956;7.002;2024-02-15T04:42:42;11.30;99.90
5960;DHT22;3006;50.956;7.002;2024-02-15T04:45:13;11.30;99.80
5960;DHT22;3006;50.956;7.002;2024-02-15T04:47:43;11.40;99.50
5960;DHT22;3006;50.956;7.002;2024-02-15T04:50:13;11.40;99.20
5960;DHT22;3006;50.956;7.002;2024-02-15T04:52:43;11.40;99.30
5960;DHT22;3006;50.956;7.002;2024-02-15T04:55:12;11.40;99.20
5960;DHT22;3006;50.956;7.002;2024-02-15T04:57:42;11.50;99.10
5960;DHT22;3006;50.956;7.002;2024-02-15T05:00:11;11.50;99.10
5960;DHT22;3006;50.956;7.002;2024-02-15T05:02:42;11.50;98.80
5960;DHT22;3006;50.956;7.002;2024-02-15T05:05:11;11.50;98.60
5960;DHT22;3006;50.956;7.002;2024-02-15T05:07:42;11.50;98.60
5960;DHT22;3006;50.956;7.002;2024-02-15T05:10:11;11.50;98.60
5960;DHT22;3006;50.956;7.002;2024-02-15T05:12:39;11.50;98.40
5960;DHT22;3006;50.956;7.002;2024-02-15T05:15:08;11.50;98.20
5960;DHT22;3006;50.956;7.002;2024-02-15T05:17:40;11.50;98.40
5960;DHT22;3006;50.956;7.002;2024-02-15T05:20:09;11.50;98.40
5960;DHT22;3006;50.956;7.002;2024-02-15T05:22:40;11.60;98.20
5960;DHT22;3006;50.956;7.002;2024-02-15T05:25:17;11.60;97.80
5960;DHT22;3006;50.956;7.002;2024-02-15T05:27:52;11.70;97.80
5960;DHT22;3006;50.956;7.002;2024-02-15T05:30:23;11.70;97.80
5960;DHT22;3006;50.956;7.002;2024-02-15T05:32:51;11.60;97.80
5960;DHT22;3006;50.956;7.002;2024-02-15T05:35:21;11.60;97.90
5960;DHT22;3006;50.956;7.002;2024-02-15T05:37:50;11.60;97.90
5960;DHT22;3006;50.956;7.002;2024-02-15T05:40:21;11.60;97.80
5960;DHT22;3006;50.956;7.002;2024-02-15T05:42:55;11.50;97.80
5960;DHT22;3006;50.956;7.002;2024-02-15T05:45:31;11.50;98.00
5960;DHT22;3006;50.956;7.002;2024-02-15T05:48:05;11.50;97.90
5960;DHT22;3006;50.956;7.002;2024-02-15T05:50:39;11.60;97.70
5960;DHT22;3006;50.956;7.002;2024-02-15T05:53:08;11.50;97.90
5960;DHT22;3006;50.956;7.002;2024-02-15T05:55:37;11.60;98.00
5960;DHT22;3006;50.956;7.002;2024-02-15T05:58:08;11.50;97.90
5960;DHT22;3006;50.956;7.002;2024-02-15T06:00:37;11.50;98.20
5960;DHT22;3006;50.956;7.002;2024-02-15T06:03:08;11.50;98.20
5960;DHT22;3006;50.956;7.002;2024-02-15T06:05:37;11.50;98.30
5960;DHT22;3006;50.956;7.002;2024-02-15T06:08:06;11.50;98.70
5960;DHT22;3006;50.956;7.002;2024-02-15T06:10:34;11.40;98.80
5960;DHT22;3006;50.956;7.002;2024-02-15T06:13:04;11.50;99.00
5960;DHT22;3006;50.956;7.002;2024-02-15T06:15:32;11.50;99.10
5960;DHT22;3006;50.956;7.002;2024-02-15T06:18:00;11.50;98.90
5960;DHT22;3006;50.956;7.002;2024-02-15T06:20:33;11.50;98.90
5960;DHT22;3006;50.956;7.002;2024-02-15T06:23:02;11.50;98.90
5960;DHT22;3006;50.956;7.002;2024-02-15T06:25:31;11.40;98.90
5960;DHT22;3006;50.956;7.002;2024-02-15T06:28:00;11.40;99.00
5960;DHT22;3006;50.956;7.002;2024-02-15T06:30:30;11.50;98.90
5960;DHT22;3006;50.956;7.002;2024-02-15T06:33:16;11.50;98.60
5960;DHT22;3006;50.956;7.002;2024-02-15T06:36:05;11.50;98.50
5960;DHT22;3006;50.956;7.002;2024-02-15T06:38:51;11.50;98.60
5960;DHT22;3006;50.956;7.002;2024-02-15T06:41:37;11.50;98.40
5960;DHT22;3006;50.956;7.002;2024-02-15T06:44:06;11.50;98.40
5960;DHT22;3006;50.956;7.002;2024-02-15T06:46:35;11.50;98.30
5960;DHT22;3006;50.956;7.002;2024-02-15T06:49:04;11.50;98.40
5960;DHT22;3006;50.956;7.002;2024-02-15T06:51:32;11.50;98.00
5960;DHT22;3006;50.956;7.002;2024-02-15T06:54:01;11.50;98.00
5960;DHT22;3006;50.956;7.002;2024-02-15T06:56:30;11.50;97.80
5960;DHT22;3006;50.956;7.002;2024-02-15T06:59:00;11.50;97.80
5960;DHT22;3006;50.956;7.002;2024-02-15T07:01:28;11.60;97.90
5960;DHT22;3006;50.956;7.002;2024-02-15T07:03:56;11.80;96.90
5960;DHT22;3006;50.956;7.002;2024-02-15T07:06:25;11.70;96.90
5960;DHT22;3006;50.956;7.002;2024-02-15T07:08:55;11.60;97.40
5960;DHT22;3006;50.956;7.002;2024-02-15T07:11:25;14.40;90.70
5960;DHT22;3006;50.956;7.002;2024-02-15T07:13:53;14.80;83.90
5960;DHT22;3006;50.956;7.002;2024-02-15T07:16:21;14.80;82.80
5960;DHT22;3006;50.956;7.002;2024-02-15T07:18:50;14.80;82.50
5960;DHT22;3006;50.956;7.002;2024-02-15T07:21:21;14.80;82.40
5960;DHT22;3006;50.956;7.002;2024-02-15T07:23:53;14.70;82.40
5960;DHT22;3006;50.956;7.002;2024-02-15T07:26:23;14.70;82.60
5960;DHT22;3006;50.956;7.002;2024-02-15T07:28:52;14.60;82.70
5960;DHT22;3006;50.956;7.002;2024-02-15T07:31:21;14.50;83.20
5960;DHT22;3006;50.956;7.002;2024-02-15T07:33:50;14.50;83.00
5960;DHT22;3006;50.956;7.002;2024-02-15T07:36:21;14.30;84.10
5960;DHT22;3006;50.956;7.002;2024-02-15T07:38:50;13.90;86.00
5960;DHT22;3006;50.956;7.002;2024-02-15T07:41:19;13.30;88.10
5960;DHT22;3006;50.956;7.002;2024-02-15T07:43:50;12.50;92.50
5960;DHT22;3006;50.956;7.002;2024-02-15T07:46:19;12.00;95.20
5960;DHT22;3006;50.956;7.002;2024-02-15T07:48:48;11.80;96.60
5960;DHT22;3006;50.956;7.002;2024-02-15T07:51:18;11.70;97.10
5960;DHT22;3006;50.956;7.002;2024-02-15T07:53:49;11.70;97.70
5960;DHT22;3006;50.956;7.002;2024-02-15T07:56:17;11.70;98.20
5960;DHT22;3006;50.956;7.002;2024-02-15T07:58:48;11.70;98.20
5960;DHT22;3006;50.956;7.002;2024-02-15T08:01:20;11.50;98.80
5960;DHT22;3006;50.956;7.002;2024-02-15T08:03:51;11.50;99.50
5960;DHT22;3006;50.956;7.002;2024-02-15T08:06:22;11.50;99.20
5960;DHT22;3006;50.956;7.002;2024-02-15T08:08:57;11.60;99.40
5960;DHT22;3006;50.956;7.002;2024-02-15T08:11:25;11.60;99.40
5960;DHT22;3006;50.956;7.002;2024-02-15T08:13:54;11.60;99.40
5960;DHT22;3006;50.956;7.002;2024-02-15T08:16:26;11.70;99.20
5960;DHT22;3006;50.956;7.002;2024-02-15T08:18:55;11.70;99.40
5960;DHT22;3006;50.956;7.002;2024-02-15T08:21:27;11.60;99.80
5960;DHT22;3006;50.956;7.002;2024-02-15T08:23:58;11.60;99.80
5960;DHT22;3006;50.956;7.002;2024-02-15T08:26:26;11.50;99.90
5960;DHT22;3006;50.956;7.002;2024-02-15T08:28:56;11.50;99.90
5960;DHT22;3006;50.956;7.002;2024-02-15T08:31:24;11.50;99.90
5960;DHT22;3006;50.956;7.002;2024-02-15T08:33:53;11.50;99.90
5960;DHT22;3006;50.956;7.002;2024-02-15T08:36:21;11.50;99.90
5960;DHT22;3006;50.956;7.002;2024-02-15T08:38:50;11.50;99.90
5960;DHT22;3006;50.956;7.002;2024-02-15T08:41:19;11.50;99.90
5960;DHT22;3006;50.956;7.002;2024-02-15T08:43:50;11.50;99.90
5960;DHT22;3006;50.956;7.002;2024-02-15T08:46:19;11.50;99.90
5960;DHT22;3006;50.956;7.002;2024-02-15T08:48:48;11.50;99.90
5960;DHT22;3006;50.956;7.002;2024-02-15T08:51:16;11.50;99.90
5960;DHT22;3006;50.956;7.002;2024-02-15T08:53:50;11.50;99.90
5960;DHT22;3006;50.956;7.002;2024-02-15T08:56:20;11.50;99.90
5960;DHT22;3006;50.956;7.002;2024-02-15T08:58:50;11.50;99.90
5960;DHT22;3006;50.956;7.002;2024-02-15T09:01:18;11.50;99.90
5960;DHT22;3006;50.956;7.002;2024-02-15T09:03:47;11.50;99.90
5960;DHT22;3006;50.956;7.002;2024-02-15T09:06:15;11.50;99.90
5960;DHT22;3006;50.956;7.002;2024-02-15T09:08:43;11.60;99.90
5960;DHT22;3006;50.956;7.002;2024-02-15T09:11:11;11.70;99.90
5960;DHT22;3006;50.956;7.002;2024-02-15T09:13:41;11.70;99.90
5960;DHT22;3006;50.956;7.002;2024-02-15T09:16:10;11.70;99.90
5960;DHT22;3006;50.956;7.002;2024-02-15T09:18:38;11.90;99.90
5960;DHT22;3006;50.956;7.002;2024-02-15T09:21:12;11.90;99.90
5960;DHT22;3006;50.956;7.002;2024-02-15T09:23:41;11.90;99.90
5960;DHT22;3006;50.956;7.002;2024-02-15T09:26:09;11.90;99.90
5960;DHT22;3006;50.956;7.002;2024-02-15T09:28:39;12.00;99.90
5960;DHT22;3006;50.956;7.002;2024-02-15T09:31:11;12.10;99.90
5960;DHT22;3006;50.956;7.002;2024-02-15T09:33:40;12.20;99.90
5960;DHT22;3006;50.956;7.002;2024-02-15T09:36:09;12.10;99.90
5960;DHT22;3006;50.956;7.002;2024-02-15T09:38:39;12.10;99.90
5960;DHT22;3006;50.956;7.002;2024-02-15T09:41:07;12.10;99.90
5960;DHT22;3006;50.956;7.002;2024-02-15T09:43:36;12.20;99.90
5960;DHT22;3006;50.956;7.002;2024-02-15T09:46:04;12.20;99.70
5960;DHT22;3006;50.956;7.002;2024-02-15T09:48:35;12.30;98.90
5960;DHT22;3006;50.956;7.002;2024-02-15T09:51:05;12.40;98.90
5960;DHT22;3006;50.956;7.002;2024-02-15T09:53:35;12.40;98.20
5960;DHT22;3006;50.956;7.002;2024-02-15T09:56:04;12.50;98.30
5960;DHT22;3006;50.956;7.002;2024-02-15T09:58:34;12.50;97.40
5960;DHT22;3006;50.956;7.002;2024-02-15T10:01:04;12.60;97.40
5960;DHT22;3006;50.956;7.002;2024-02-15T10:03:38;12.70;96.50
5960;DHT22;3006;50.956;7.002;2024-02-15T10:06:08;12.70;96.20
5960;DHT22;3006;50.956;7.002;2024-02-15T10:08:37;12.70;95.80
5960;DHT22;3006;50.956;7.002;2024-02-15T10:11:06;12.80;95.40
5960;DHT22;3006;50.956;7.002;2024-02-15T10:13:37;12.80;95.30
5960;DHT22;3006;50.956;7.002;2024-02-15T10:16:16;12.80;94.90
5960;DHT22;3006;50.956;7.002;2024-02-15T10:18:46;12.80;95.00
5960;DHT22;3006;50.956;7.002;2024-02-15T10:21:25;12.80;94.80
5960;DHT22;3006;50.956;7.002;2024-02-15T10:24:04;12.80;94.40
5960;DHT22;3006;50.956;7.002;2024-02-15T10:26:33;12.80;94.60
5960;DHT22;3006;50.956;7.002;2024-02-15T10:29:10;12.80;93.90
5960;DHT22;3006;50.956;7.002;2024-02-15T10:31:39;12.80;93.90
5960;DHT22;3006;50.956;7.002;2024-02-15T10:34:14;12.90;93.40
5960;DHT22;3006;50.956;7.002;2024-02-15T10:36:42;12.90;93.40
5960;DHT22;3006;50.956;7.002;2024-02-15T10:39:12;12.90;93.20
5960;DHT22;3006;50.956;7.002;2024-02-15T10:41:45;13.00;93.20
5960;DHT22;3006;50.956;7.002;2024-02-15T10:44:18;13.00;92.80
5960;DHT22;3006;50.956;7.002;2024-02-15T10:46:47;13.10;92.60
5960;DHT22;3006;50.956;7.002;2024-02-15T10:49:20;13.10;91.90
5960;DHT22;3006;50.956;7.002;2024-02-15T10:51:51;13.20;91.40
5960;DHT22;3006;50.956;7.002;2024-02-15T10:54:41;13.30;90.80
5960;DHT22;3006;50.956;7.002;2024-02-15T10:57:10;13.30;90.30
5960;DHT22;3006;50.956;7.002;2024-02-15T10:59:46;13.30;90.40
5960;DHT22;3006;50.956;7.002;2024-02-15T11:02:27;13.40;90.00
5960;DHT22;3006;50.956;7.002;2024-02-15T11:05:02;13.40;89.20
5960;DHT22;3006;50.956;7.002;2024-02-15T11:07:32;13.50;89.60
5960;DHT22;3006;50.956;7.002;2024-02-15T11:10:02;13.50;89.20
5960;DHT22;3006;50.956;7.002;2024-02-15T11:12:35;13.50;88.70
5960;DHT22;3006;50.956;7.002;2024-02-15T11:15:04;13.60;88.30
5960;DHT22;3006;50.956;7.002;2024-02-15T11:17:47;13.60;88.60
5960;DHT22;3006;50.956;7.002;2024-02-15T11:20:52;13.60;88.30
5960;DHT22;3006;50.956;7.002;2024-02-15T11:23:26;13.70;87.60
5960;DHT22;3006;50.956;7.002;2024-02-15T11:26:08;13.90;87.80
5960;DHT22;3006;50.956;7.002;2024-02-15T11:28:37;13.90;87.00
5960;DHT22;3006;50.956;7.002;2024-02-15T11:31:08;13.90;87.20
5960;DHT22;3006;50.956;7.002;2024-02-15T11:33:37;14.00;86.10
5960;DHT22;3006;50.956;7.002;2024-02-15T11:36:08;14.00;85.90
5960;DHT22;3006;50.956;7.002;2024-02-15T11:38:38;14.00;86.30
5960;DHT22;3006;50.956;7.002;2024-02-15T11:41:08;14.10;85.80
5960;DHT22;3006;50.956;7.002;2024-02-15T11:43:48;14.10;85.30
5960;DHT22;3006;50.956;7.002;2024-02-15T11:46:25;14.20;85.50
5960;DHT22;3006;50.956;7.002;2024-02-15T11:48:57;14.20;84.70
5960;DHT22;3006;50.956;7.002;2024-02-15T11:51:29;14.20;84.70
5960;DHT22;3006;50.956;7.002;2024-02-15T11:53:59;14.20;84.90
5960;DHT22;3006;50.956;7.002;2024-02-15T11:56:27;14.30;84.60
5960;DHT22;3006;50.956;7.002;2024-02-15T11:59:03;14.30;84.70
5960;DHT22;3006;50.956;7.002;2024-02-15T12:01:33;14.40;84.80
5960;DHT22;3006;50.956;7.002;2024-02-15T12:04:19;14.40;84.60
5960;DHT22;3006;50.956;7.002;2024-02-15T12:07:06;14.40;84.30
5960;DHT22;3006;50.956;7.002;2024-02-15T12:09:58;14.50;84.30
5960;DHT22;3006;50.956;7.002;2024-02-15T12:12:50;14.60;84.00
5960;DHT22;3006;50.956;7.002;2024-02-15T12:15:36;14.60;83.30
5960;DHT22;3006;50.956;7.002;2024-02-15T12:18:33;14.60;83.40
5960;DHT22;3006;50.956;7.002;2024-02-15T12:21:10;14.70;83.20
5960;DHT22;3006;50.956;7.002;2024-02-15T12:23:41;14.70;83.00
5960;DHT22;3006;50.956;7.002;2024-02-15T12:26:10;14.80;82.90
5960;DHT22;3006;50.956;7.002;2024-02-15T12:28:41;14.70;82.00
5960;DHT22;3006;50.956;7.002;2024-02-15T12:31:13;14.70;82.00
5960;DHT22;3006;50.956;7.002;2024-02-15T12:33:42;14.70;82.30
5960;DHT22;3006;50.956;7.002;2024-02-15T12:36:10;14.80;81.80
5960;DHT22;3006;50.956;7.002;2024-02-15T12:38:38;14.90;82.10
5960;DHT22;3006;50.956;7.002;2024-02-15T12:41:21;15.00;81.80
5960;DHT22;3006;50.956;7.002;2024-02-15T12:43:52;15.00;81.50
5960;DHT22;3006;50.956;7.002;2024-02-15T12:46:20;15.10;80.50
5960;DHT22;3006;50.956;7.002;2024-02-15T12:48:49;15.00;80.70
5960;DHT22;3006;50.956;7.002;2024-02-15T12:51:19;15.10;80.50
5960;DHT22;3006;50.956;7.002;2024-02-15T12:53:48;15.10;80.40
5960;DHT22;3006;50.956;7.002;2024-02-15T12:56:21;15.10;80.10
5960;DHT22;3006;50.956;7.002;2024-02-15T12:58:51;15.20;79.70
5960;DHT22;3006;50.956;7.002;2024-02-15T13:01:19;15.20;79.60
5960;DHT22;3006;50.956;7.002;2024-02-15T13:03:47;15.30;79.40
5960;DHT22;3006;50.956;7.002;2024-02-15T13:06:16;15.30;79.00
5960;DHT22;3006;50.956;7.002;2024-02-15T13:08:45;15.30;78.50
5960;DHT22;3006;50.956;7.002;2024-02-15T13:11:15;15.30;78.20
5960;DHT22;3006;50.956;7.002;2024-02-15T13:13:45;15.30;78.20
5960;DHT22;3006;50.956;7.002;2024-02-15T13:16:13;15.30;77.90
5960;DHT22;3006;50.956;7.002;2024-02-15T13:18:41;15.30;78.10
5960;DHT22;3006;50.956;7.002;2024-02-15T13:21:10;15.30;78.40
5960;DHT22;3006;50.956;7.002;2024-02-15T13:23:39;15.20;78.50
5960;DHT22;3006;50.956;7.002;2024-02-15T13:26:07;15.20;78.30
5960;DHT22;3006;50.956;7.002;2024-02-15T13:28:38;15.20;78.10
5960;DHT22;3006;50.956;7.002;2024-02-15T13:31:08;15.20;78.20
5960;DHT22;3006;50.956;7.002;2024-02-15T13:33:39;15.30;78.50
5960;DHT22;3006;50.956;7.002;2024-02-15T13:36:08;15.20;78.00
5960;DHT22;3006;50.956;7.002;2024-02-15T13:38:38;15.20;78.40
5960;DHT22;3006;50.956;7.002;2024-02-15T13:41:06;15.20;78.50
5960;DHT22;3006;50.956;7.002;2024-02-15T13:43:35;15.20;78.50
5960;DHT22;3006;50.956;7.002;2024-02-15T13:46:04;15.30;78.50
5960;DHT22;3006;50.956;7.002;2024-02-15T13:48:33;15.30;78.50
5960;DHT22;3006;50.956;7.002;2024-02-15T13:51:01;15.30;78.10
5960;DHT22;3006;50.956;7.002;2024-02-15T13:53:30;15.40;78.10
5960;DHT22;3006;50.956;7.002;2024-02-15T13:55:58;15.40;77.60
5960;DHT22;3006;50.956;7.002;2024-02-15T13:58:27;15.50;77.30
5960;DHT22;3006;50.956;7.002;2024-02-15T14:00:55;15.60;76.80
5960;DHT22;3006;50.956;7.002;2024-02-15T14:03:24;15.60;76.40
5960;DHT22;3006;50.956;7.002;2024-02-15T14:05:54;15.60;76.10
5960;DHT22;3006;50.956;7.002;2024-02-15T14:08:22;15.60;76.40
5960;DHT22;3006;50.956;7.002;2024-02-15T14:10:52;15.60;75.90
5960;DHT22;3006;50.956;7.002;2024-02-15T14:13:20;15.60;76.20
5960;DHT22;3006;50.956;7.002;2024-02-15T14:15:49;15.50;75.90
5960;DHT22;3006;50.956;7.002;2024-02-15T14:18:18;15.50;75.80
5960;DHT22;3006;50.956;7.002;2024-02-15T14:20:47;15.50;75.80
5960;DHT22;3006;50.956;7.002;2024-02-15T14:23:17;15.50;75.80
5960;DHT22;3006;50.956;7.002;2024-02-15T14:25:46;15.50;75.90
5960;DHT22;3006;50.956;7.002;2024-02-15T14:28:15;15.50;76.00
5960;DHT22;3006;50.956;7.002;2024-02-15T14:30:43;15.50;75.70
5960;DHT22;3006;50.956;7.002;2024-02-15T14:33:29;15.60;75.70
5960;DHT22;3006;50.956;7.002;2024-02-15T14:36:02;15.60;75.40
5960;DHT22;3006;50.956;7.002;2024-02-15T14:38:33;15.60;75.60
5960;DHT22;3006;50.956;7.002;2024-02-15T14:41:02;15.60;75.20
5960;DHT22;3006;50.956;7.002;2024-02-15T14:43:34;15.60;74.70
5960;DHT22;3006;50.956;7.002;2024-02-15T14:46:02;15.60;74.60
5960;DHT22;3006;50.956;7.002;2024-02-15T14:48:32;15.60;74.50
5960;DHT22;3006;50.956;7.002;2024-02-15T14:51:01;15.60;74.30
5960;DHT22;3006;50.956;7.002;2024-02-15T14:53:29;15.60;74.20
5960;DHT22;3006;50.956;7.002;2024-02-15T14:55:59;15.60;74.60
5960;DHT22;3006;50.956;7.002;2024-02-15T14:58:29;15.60;74.40
5960;DHT22;3006;50.956;7.002;2024-02-15T15:00:57;15.60;74.40
5960;DHT22;3006;50.956;7.002;2024-02-15T15:03:31;15.50;74.10
5960;DHT22;3006;50.956;7.002;2024-02-15T15:06:00;15.50;74.30
5960;DHT22;3006;50.956;7.002;2024-02-15T15:08:46;15.50;74.40
5960;DHT22;3006;50.956;7.002;2024-02-15T15:11:33;15.50;74.60
5960;DHT22;3006;50.956;7.002;2024-02-15T15:14:19;15.50;74.20
5960;DHT22;3006;50.956;7.002;2024-02-15T15:16:47;15.50;74.30
5960;DHT22;3006;50.956;7.002;2024-02-15T15:19:16;15.50;74.30
5960;DHT22;3006;50.956;7.002;2024-02-15T15:21:45;15.50;74.60
5960;DHT22;3006;50.956;7.002;2024-02-15T15:24:13;15.50;74.60
5960;DHT22;3006;50.956;7.002;2024-02-15T15:26:43;15.50;73.80
5960;DHT22;3006;50.956;7.002;2024-02-15T15:29:11;15.40;74.00
5960;DHT22;3006;50.956;7.002;2024-02-15T15:31:40;15.40;74.30
5960;DHT22;3006;50.956;7.002;2024-02-15T15:34:08;15.40;74.50
5960;DHT22;3006;50.956;7.002;2024-02-15T15:36:37;15.30;74.60
5960;DHT22;3006;50.956;7.002;2024-02-15T15:39:06;15.30;75.00
5960;DHT22;3006;50.956;7.002;2024-02-15T15:41:36;15.30;75.40
5960;DHT22;3006;50.956;7.002;2024-02-15T15:44:07;15.20;75.70
5960;DHT22;3006;50.956;7.002;2024-02-15T15:46:35;15.20;76.10
5960;DHT22;3006;50.956;7.002;2024-02-15T15:49:04;15.20;75.90
5960;DHT22;3006;50.956;7.002;2024-02-15T15:51:33;15.10;75.80
5960;DHT22;3006;50.956;7.002;2024-02-15T15:54:01;15.20;75.70
5960;DHT22;3006;50.956;7.002;2024-02-15T15:56:32;15.10;75.40
5960;DHT22;3006;50.956;7.002;2024-02-15T15:59:01;15.10;75.60
5960;DHT22;3006;50.956;7.002;2024-02-15T16:01:34;15.00;75.30
5960;DHT22;3006;50.956;7.002;2024-02-15T16:04:04;15.00;75.50
5960;DHT22;3006;50.956;7.002;2024-02-15T16:06:33;15.00;76.10
5960;DHT22;3006;50.956;7.002;2024-02-15T16:09:01;15.00;76.10
5960;DHT22;3006;50.956;7.002;2024-02-15T16:11:31;14.90;76.20
5960;DHT22;3006;50.956;7.002;2024-02-15T16:13:59;14.90;76.20
5960;DHT22;3006;50.956;7.002;2024-02-15T16:16:28;14.90;76.00
5960;DHT22;3006;50.956;7.002;2024-02-15T16:18:58;14.80;75.90
5960;DHT22;3006;50.956;7.002;2024-02-15T16:21:27;14.80;75.60
5960;DHT22;3006;50.956;7.002;2024-02-15T16:23:55;14.80;76.00